sensor_id;sensor_type;location;lat;lon;timestamp;P1;durP1;ratioP1;P2;durP2;ratioP2
7563;SDS011;3823;53.586;10.040;2022-12-15T00:00:08;31.50;;;16.83;;
7563;SDS011;3823;53.586;10.040;2022-12-15T00:02:53;29.47;;;17.33;;
7563;SDS011;3823;53.586;10.040;2022-12-15T00:05:37;35.60;;;18.90;;
7563;SDS011;3823;53.586;10.040;2022-12-15T00:08:21;30.90;;;17.73;;
7563;SDS011;3823;53.586;10.040;2022-12-15T00:11:05;31.50;;;16.50;;
7563;SDS011;3823;53.586;10.040;2022-12-15T00:13:49;34.40;;;17.83;;
7563;SDS011;3823;53.586;10.040;2022-12-15T00:16:33;31.90;;;15.27;;
7563;SDS011;3823;53.586;10.040;2022-12-15T00:19:17;40.50;;;18.57;;
7563;SDS011;3823;53.586;10.040;2022-12-15T00:22:01;30.23;;;18.13;;
7563;SDS011;3823;53.586;10.040;2022-12-15T00:24:47;34.90;;;18.30;;
7563;SDS011;3823;53.586;10.040;2022-12-15T00:27:31;34.60;;;17.43;;
7563;SDS011;3823;53.586;10.040;2022-12-15T00:30:15;32.17;;;16.80;;
7563;SDS011;3823;53.586;10.040;2022-12-15T00:33:05;30.30;;;17.07;;
7563;SDS011;3823;53.586;10.040;2022-12-15T00:35:50;40.17;;;18.07;;
7563;SDS011;3823;53.586;10.040;2022-12-15T00:38:34;29.63;;;17.27;;
7563;SDS011;3823;53.586;10.040;2022-12-15T00:41:13;30.83;;;17.50;;
7563;SDS011;3823;53.586;10.040;2022-12-15T00:43:40;31.33;;;18.03;;
7563;SDS011;3823;53.586;10.040;2022-12-15T00:46:06;39.03;;;18.80;;
7563;SDS011;3823;53.586;10.040;2022-12-15T00:48:50;42.20;;;19.30;;
7563;SDS011;3823;53.586;10.040;2022-12-15T00:51:16;33.30;;;18.50;;
7563;SDS011;3823;53.586;10.040;2022-12-15T00:53:42;31.37;;;18.03;;
7563;SDS011;3823;53.586;10.040;2022-12-15T00:56:27;30.80;;;16.80;;
7563;SDS011;3823;53.586;10.040;2022-12-15T00:59:11;27.03;;;17.50;;
7563;SDS011;3823;53.586;10.040;2022-12-15T01:01:56;36.67;;;17.90;;
7563;SDS011;3823;53.586;10.040;2022-12-15T01:04:40;30.40;;;18.17;;
7563;SDS011;3823;53.586;10.040;2022-12-15T01:07:24;32.97;;;16.90;;
7563;SDS011;3823;53.586;10.040;2022-12-15T01:10:08;34.90;;;16.17;;
7563;SDS011;3823;53.586;10.040;2022-12-15T01:12:53;34.20;;;17.00;;
7563;SDS011;3823;53.586;10.040;2022-12-15T01:15:37;26.83;;;16.40;;
7563;SDS011;3823;53.586;10.040;2022-12-15T01:18:22;30.43;;;16.20;;
7563;SDS011;3823;53.586;10.040;2022-12-15T01:21:07;35.97;;;18.73;;
7563;SDS011;3823;53.586;10.040;2022-12-15T01:23:34;32.97;;;17.83;;
7563;SDS011;3823;53.586;10.040;2022-12-15T01:26:00;40.87;;;18.23;;
7563;SDS011;3823;53.586;10.040;2022-12-15T01:28:26;31.10;;;17.57;;
7563;SDS011;3823;53.586;10.040;2022-12-15T01:30:52;31.30;;;18.53;;
7563;SDS011;3823;53.586;10.040;2022-12-15T01:33:18;27.87;;;16.80;;
7563;SDS011;3823;53.586;10.040;2022-12-15T01:35:44;29.67;;;16.53;;
7563;SDS011;3823;53.586;10.040;2022-12-15T01:38:18;34.03;;;16.20;;
7563;SDS011;3823;53.586;10.040;2022-12-15T01:40:49;28.47;;;16.33;;
7563;SDS011;3823;53.586;10.040;2022-12-15T01:43:20;30.10;;;15.87;;
7563;SDS011;3823;53.586;10.040;2022-12-15T01:48:24;26.83;;;16.33;;
7563;SDS011;3823;53.586;10.040;2022-12-15T01:50:57;29.57;;;15.40;;
7563;SDS011;3823;53.586;10.040;2022-12-15T01:53:27;27.97;;;15.30;;
7563;SDS011;3823;53.586;10.040;2022-12-15T01:55:57;27.23;;;17.13;;
7563;SDS011;3823;53.586;10.040;2022-12-15T01:58:23;30.77;;;15.40;;
7563;SDS011;3823;53.586;10.040;2022-12-15T02:00:50;35.70;;;15.90;;
7563;SDS011;3823;53.586;10.040;2022-12-15T02:03:19;30.43;;;15.63;;
7563;SDS011;3823;53.586;10.040;2022-12-15T02:05:45;30.90;;;16.23;;
7563;SDS011;3823;53.586;10.040;2022-12-15T02:08:11;29.93;;;17.17;;
7563;SDS011;3823;53.586;10.040;2022-12-15T02:10:40;24.37;;;15.03;;
7563;SDS011;3823;53.586;10.040;2022-12-15T02:13:39;27.57;;;16.50;;
7563;SDS011;3823;53.586;10.040;2022-12-15T02:22:06;31.77;;;15.73;;
7563;SDS011;3823;53.586;10.040;2022-12-15T02:24:56;29.43;;;15.27;;
7563;SDS011;3823;53.586;10.040;2022-12-15T02:28:00;29.17;;;16.50;;
7563;SDS011;3823;53.586;10.040;2022-12-15T02:33:45;17.73;;;12.13;;
7563;SDS011;3823;53.586;10.040;2022-12-15T02:36:41;25.30;;;13.60;;
7563;SDS011;3823;53.586;10.040;2022-12-15T02:39:11;22.03;;;13.03;;
7563;SDS011;3823;53.586;10.040;2022-12-15T02:41:41;24.80;;;14.87;;
7563;SDS011;3823;53.586;10.040;2022-12-15T02:44:17;21.23;;;13.07;;
7563;SDS011;3823;53.586;10.040;2022-12-15T02:55:22;23.07;;;11.90;;
7563;SDS011;3823;53.586;10.040;2022-12-15T03:00:42;26.33;;;12.90;;
7563;SDS011;3823;53.586;10.040;2022-12-15T03:03:11;24.83;;;14.00;;
7563;SDS011;3823;53.586;10.040;2022-12-15T03:05:48;24.40;;;14.77;;
7563;SDS011;3823;53.586;10.040;2022-12-15T03:08:18;21.83;;;12.87;;
7563;SDS011;3823;53.586;10.040;2022-12-15T03:10:45;20.60;;;12.00;;
7563;SDS011;3823;53.586;10.040;2022-12-15T03:13:11;27.00;;;13.90;;
7563;SDS011;3823;53.586;10.040;2022-12-15T03:15:38;28.83;;;15.30;;
7563;SDS011;3823;53.586;10.040;2022-12-15T03:18:04;28.60;;;13.40;;
7563;SDS011;3823;53.586;10.040;2022-12-15T03:20:29;28.43;;;13.50;;
7563;SDS011;3823;53.586;10.040;2022-12-15T03:22:55;26.60;;;14.93;;
7563;SDS011;3823;53.586;10.040;2022-12-15T03:25:24;22.90;;;13.17;;
7563;SDS011;3823;53.586;10.040;2022-12-15T03:27:51;26.17;;;16.00;;
7563;SDS011;3823;53.586;10.040;2022-12-15T03:30:17;23.57;;;13.60;;
7563;SDS011;3823;53.586;10.040;2022-12-15T03:32:45;27.83;;;14.90;;
7563;SDS011;3823;53.586;10.040;2022-12-15T03:35:11;21.50;;;13.00;;
7563;SDS011;3823;53.586;10.040;2022-12-15T03:37:38;25.43;;;14.37;;
7563;SDS011;3823;53.586;10.040;2022-12-15T03:40:10;25.13;;;16.83;;
7563;SDS011;3823;53.586;10.040;2022-12-15T03:42:38;23.30;;;14.10;;
7563;SDS011;3823;53.586;10.040;2022-12-15T03:45:16;26.67;;;14.37;;
7563;SDS011;3823;53.586;10.040;2022-12-15T03:47:44;24.33;;;13.77;;
7563;SDS011;3823;53.586;10.040;2022-12-15T03:50:11;23.33;;;13.97;;
7563;SDS011;3823;53.586;10.040;2022-12-15T03:52:38;24.63;;;13.30;;
7563;SDS011;3823;53.586;10.040;2022-12-15T03:55:06;23.30;;;13.40;;
7563;SDS011;3823;53.586;10.040;2022-12-15T03:57:33;25.33;;;13.13;;
7563;SDS011;3823;53.586;10.040;2022-12-15T03:59:59;20.57;;;13.37;;
7563;SDS011;3823;53.586;10.040;2022-12-15T04:02:25;25.87;;;15.73;;
7563;SDS011;3823;53.586;10.040;2022-12-15T04:04:51;24.03;;;13.80;;
7563;SDS011;3823;53.586;10.040;2022-12-15T04:07:16;23.20;;;14.80;;
7563;SDS011;3823;53.586;10.040;2022-12-15T04:09:45;34.27;;;15.00;;
7563;SDS011;3823;53.586;10.040;2022-12-15T04:12:11;24.70;;;14.30;;
7563;SDS011;3823;53.586;10.040;2022-12-15T04:14:36;24.40;;;14.00;;
7563;SDS011;3823;53.586;10.040;2022-12-15T04:17:06;28.50;;;14.27;;
7563;SDS011;3823;53.586;10.040;2022-12-15T04:19:32;22.27;;;13.67;;
7563;SDS011;3823;53.586;10.040;2022-12-15T04:22:16;28.23;;;15.10;;
7563;SDS011;3823;53.586;10.040;2022-12-15T04:24:42;26.67;;;14.77;;
7563;SDS011;3823;53.586;10.040;2022-12-15T04:27:26;24.20;;;15.03;;
7563;SDS011;3823;53.586;10.040;2022-12-15T04:30:10;19.00;;;12.13;;
7563;SDS011;3823;53.586;10.040;2022-12-15T04:32:55;24.90;;;15.13;;
7563;SDS011;3823;53.586;10.040;2022-12-15T04:35:40;24.47;;;14.67;;
7563;SDS011;3823;53.586;10.040;2022-12-15T04:38:24;26.60;;;15.60;;
7563;SDS011;3823;53.586;10.040;2022-12-15T04:41:10;26.63;;;14.57;;
7563;SDS011;3823;53.586;10.040;2022-12-15T04:43:54;25.10;;;13.97;;
7563;SDS011;3823;53.586;10.040;2022-12-15T04:46:38;24.30;;;13.70;;
7563;SDS011;3823;53.586;10.040;2022-12-15T04:49:22;27.90;;;15.30;;
7563;SDS011;3823;53.586;10.040;2022-12-15T04:52:06;24.93;;;13.77;;
7563;SDS011;3823;53.586;10.040;2022-12-15T04:54:50;28.20;;;14.60;;
7563;SDS011;3823;53.586;10.040;2022-12-15T04:57:35;28.33;;;15.47;;
7563;SDS011;3823;53.586;10.040;2022-12-15T05:00:19;26.13;;;14.57;;
7563;SDS011;3823;53.586;10.040;2022-12-15T05:03:04;37.00;;;14.70;;
7563;SDS011;3823;53.586;10.040;2022-12-15T05:05:48;28.07;;;13.53;;
7563;SDS011;3823;53.586;10.040;2022-12-15T05:08:32;21.43;;;14.23;;
7563;SDS011;3823;53.586;10.040;2022-12-15T05:11:16;27.13;;;14.60;;
7563;SDS011;3823;53.586;10.040;2022-12-15T05:14:01;34.83;;;15.53;;
7563;SDS011;3823;53.586;10.040;2022-12-15T05:16:45;25.33;;;14.87;;
7563;SDS011;3823;53.586;10.040;2022-12-15T05:19:29;24.27;;;14.07;;
7563;SDS011;3823;53.586;10.040;2022-12-15T05:22:13;25.53;;;13.50;;
7563;SDS011;3823;53.586;10.040;2022-12-15T05:24:57;22.23;;;14.80;;
7563;SDS011;3823;53.586;10.040;2022-12-15T05:27:41;27.67;;;15.23;;
7563;SDS011;3823;53.586;10.040;2022-12-15T05:30:25;27.10;;;15.20;;
7563;SDS011;3823;53.586;10.040;2022-12-15T05:33:09;24.87;;;15.40;;
7563;SDS011;3823;53.586;10.040;2022-12-15T05:35:34;24.30;;;14.90;;
7563;SDS011;3823;53.586;10.040;2022-12-15T05:38:00;26.50;;;14.10;;
7563;SDS011;3823;53.586;10.040;2022-12-15T05:40:26;30.77;;;16.33;;
7563;SDS011;3823;53.586;10.040;2022-12-15T05:42:51;22.13;;;14.50;;
7563;SDS011;3823;53.586;10.040;2022-12-15T05:45:17;24.73;;;14.30;;
7563;SDS011;3823;53.586;10.040;2022-12-15T05:47:42;25.23;;;15.67;;
7563;SDS011;3823;53.586;10.040;2022-12-15T05:50:08;29.60;;;14.83;;
7563;SDS011;3823;53.586;10.040;2022-12-15T05:52:33;30.03;;;14.40;;
7563;SDS011;3823;53.586;10.040;2022-12-15T05:54:59;23.07;;;14.57;;
7563;SDS011;3823;53.586;10.040;2022-12-15T05:57:24;30.07;;;16.17;;
7563;SDS011;3823;53.586;10.040;2022-12-15T05:59:50;22.40;;;13.40;;
7563;SDS011;3823;53.586;10.040;2022-12-15T06:02:15;21.80;;;14.10;;
7563;SDS011;3823;53.586;10.040;2022-12-15T06:04:41;21.77;;;12.67;;
7563;SDS011;3823;53.586;10.040;2022-12-15T06:07:06;21.77;;;12.77;;
7563;SDS011;3823;53.586;10.040;2022-12-15T06:09:32;23.37;;;14.47;;
7563;SDS011;3823;53.586;10.040;2022-12-15T06:11:57;29.83;;;14.83;;
7563;SDS011;3823;53.586;10.040;2022-12-15T06:14:23;20.13;;;13.50;;
7563;SDS011;3823;53.586;10.040;2022-12-15T06:16:48;20.80;;;12.87;;
7563;SDS011;3823;53.586;10.040;2022-12-15T06:19:14;26.90;;;14.47;;
7563;SDS011;3823;53.586;10.040;2022-12-15T06:21:39;26.60;;;13.60;;
7563;SDS011;3823;53.586;10.040;2022-12-15T06:24:05;26.13;;;13.23;;
7563;SDS011;3823;53.586;10.040;2022-12-15T06:26:32;23.47;;;14.50;;
7563;SDS011;3823;53.586;10.040;2022-12-15T06:29:03;28.20;;;14.10;;
7563;SDS011;3823;53.586;10.040;2022-12-15T06:31:31;33.90;;;13.70;;
7563;SDS011;3823;53.586;10.040;2022-12-15T06:33:58;24.10;;;13.60;;
7563;SDS011;3823;53.586;10.040;2022-12-15T06:36:24;21.10;;;14.60;;
7563;SDS011;3823;53.586;10.040;2022-12-15T06:38:50;24.33;;;14.03;;
7563;SDS011;3823;53.586;10.040;2022-12-15T06:41:16;25.67;;;13.90;;
7563;SDS011;3823;53.586;10.040;2022-12-15T06:43:51;26.93;;;14.20;;
7563;SDS011;3823;53.586;10.040;2022-12-15T06:46:18;27.10;;;14.73;;
7563;SDS011;3823;53.586;10.040;2022-12-15T06:48:44;24.07;;;14.27;;
7563;SDS011;3823;53.586;10.040;2022-12-15T06:51:10;27.00;;;15.27;;
7563;SDS011;3823;53.586;10.040;2022-12-15T06:53:40;28.33;;;13.87;;
7563;SDS011;3823;53.586;10.040;2022-12-15T06:56:07;22.53;;;13.53;;
7563;SDS011;3823;53.586;10.040;2022-12-15T06:58:45;25.87;;;14.90;;
7563;SDS011;3823;53.586;10.040;2022-12-15T07:01:12;25.53;;;13.87;;
7563;SDS011;3823;53.586;10.040;2022-12-15T07:03:38;25.77;;;13.80;;
7563;SDS011;3823;53.586;10.040;2022-12-15T07:06:08;25.40;;;14.67;;
7563;SDS011;3823;53.586;10.040;2022-12-15T07:08:35;26.63;;;15.43;;
7563;SDS011;3823;53.586;10.040;2022-12-15T07:11:02;24.43;;;14.67;;
7563;SDS011;3823;53.586;10.040;2022-12-15T07:13:28;23.30;;;15.50;;
7563;SDS011;3823;53.586;10.040;2022-12-15T07:15:57;25.40;;;15.40;;
7563;SDS011;3823;53.586;10.040;2022-12-15T07:18:26;22.97;;;14.53;;
7563;SDS011;3823;53.586;10.040;2022-12-15T07:20:53;24.13;;;17.53;;
7563;SDS011;3823;53.586;10.040;2022-12-15T07:23:19;32.37;;;17.20;;
7563;SDS011;3823;53.586;10.040;2022-12-15T07:25:45;33.47;;;17.10;;
7563;SDS011;3823;53.586;10.040;2022-12-15T07:28:10;29.77;;;16.70;;
7563;SDS011;3823;53.586;10.040;2022-12-15T07:30:36;24.47;;;16.10;;
7563;SDS011;3823;53.586;10.040;2022-12-15T07:33:01;39.77;;;17.03;;
7563;SDS011;3823;53.586;10.040;2022-12-15T07:35:27;32.03;;;16.77;;
7563;SDS011;3823;53.586;10.040;2022-12-15T07:37:53;25.87;;;15.97;;
7563;SDS011;3823;53.586;10.040;2022-12-15T07:40:19;34.63;;;18.03;;
7563;SDS011;3823;53.586;10.040;2022-12-15T07:42:45;30.67;;;17.37;;
7563;SDS011;3823;53.586;10.040;2022-12-15T07:45:10;34.70;;;16.17;;
7563;SDS011;3823;53.586;10.040;2022-12-15T07:47:36;30.43;;;16.50;;
7563;SDS011;3823;53.586;10.040;2022-12-15T07:50:02;36.80;;;21.60;;
7563;SDS011;3823;53.586;10.040;2022-12-15T07:52:28;27.80;;;16.40;;
7563;SDS011;3823;53.586;10.040;2022-12-15T07:54:55;30.83;;;16.80;;
7563;SDS011;3823;53.586;10.040;2022-12-15T07:57:20;28.17;;;16.40;;
7563;SDS011;3823;53.586;10.040;2022-12-15T07:59:46;27.93;;;17.80;;
7563;SDS011;3823;53.586;10.040;2022-12-15T08:02:12;27.67;;;15.83;;
7563;SDS011;3823;53.586;10.040;2022-12-15T08:04:38;27.03;;;16.63;;
7563;SDS011;3823;53.586;10.040;2022-12-15T08:07:04;27.67;;;17.00;;
7563;SDS011;3823;53.586;10.040;2022-12-15T08:09:30;27.50;;;15.40;;
7563;SDS011;3823;53.586;10.040;2022-12-15T08:11:56;28.80;;;17.50;;
7563;SDS011;3823;53.586;10.040;2022-12-15T08:14:22;25.00;;;15.50;;
7563;SDS011;3823;53.586;10.040;2022-12-15T08:16:47;21.93;;;12.90;;
7563;SDS011;3823;53.586;10.040;2022-12-15T08:19:13;20.55;;;14.65;;
7563;SDS011;3823;53.586;10.040;2022-12-15T08:21:41;23.43;;;14.50;;
7563;SDS011;3823;53.586;10.040;2022-12-15T08:24:08;27.90;;;14.50;;
7563;SDS011;3823;53.586;10.040;2022-12-15T08:26:34;18.33;;;13.13;;
7563;SDS011;3823;53.586;10.040;2022-12-15T08:29:02;20.33;;;13.23;;
7563;SDS011;3823;53.586;10.040;2022-12-15T08:31:30;26.17;;;14.27;;
7563;SDS011;3823;53.586;10.040;2022-12-15T08:33:58;22.58;;;13.80;;
7563;SDS011;3823;53.586;10.040;2022-12-15T08:36:24;21.00;;;13.68;;
7563;SDS011;3823;53.586;10.040;2022-12-15T08:38:50;22.08;;;13.13;;
7563;SDS011;3823;53.586;10.040;2022-12-15T08:41:16;20.98;;;12.98;;
7563;SDS011;3823;53.586;10.040;2022-12-15T08:43:47;23.30;;;13.30;;
7563;SDS011;3823;53.586;10.040;2022-12-15T08:46:14;21.40;;;13.90;;
7563;SDS011;3823;53.586;10.040;2022-12-15T08:48:41;22.17;;;13.43;;
7563;SDS011;3823;53.586;10.040;2022-12-15T08:51:06;25.20;;;13.70;;
7563;SDS011;3823;53.586;10.040;2022-12-15T08:53:32;19.47;;;13.23;;
7563;SDS011;3823;53.586;10.040;2022-12-15T08:56:14;22.17;;;12.97;;
7563;SDS011;3823;53.586;10.040;2022-12-15T08:58:42;20.50;;;12.77;;
7563;SDS011;3823;53.586;10.040;2022-12-15T09:01:13;20.77;;;12.77;;
7563;SDS011;3823;53.586;10.040;2022-12-15T09:03:41;23.65;;;13.13;;
7563;SDS011;3823;53.586;10.040;2022-12-15T09:06:07;22.00;;;14.00;;
7563;SDS011;3823;53.586;10.040;2022-12-15T09:08:38;25.13;;;13.40;;
7563;SDS011;3823;53.586;10.040;2022-12-15T09:11:03;18.60;;;12.90;;
7563;SDS011;3823;53.586;10.040;2022-12-15T09:13:32;19.90;;;13.00;;
7563;SDS011;3823;53.586;10.040;2022-12-15T09:16:02;23.03;;;13.07;;
7563;SDS011;3823;53.586;10.040;2022-12-15T09:18:33;20.55;;;12.52;;
7563;SDS011;3823;53.586;10.040;2022-12-15T09:21:03;20.20;;;12.93;;
7563;SDS011;3823;53.586;10.040;2022-12-15T09:23:30;23.38;;;13.40;;
7563;SDS011;3823;53.586;10.040;2022-12-15T09:26:00;20.60;;;11.97;;
7563;SDS011;3823;53.586;10.040;2022-12-15T09:28:33;18.70;;;12.23;;
7563;SDS011;3823;53.586;10.040;2022-12-15T09:31:03;26.40;;;14.20;;
7563;SDS011;3823;53.586;10.040;2022-12-15T09:33:29;24.13;;;14.33;;
7563;SDS011;3823;53.586;10.040;2022-12-15T09:35:55;23.10;;;13.60;;
7563;SDS011;3823;53.586;10.040;2022-12-15T09:38:20;23.13;;;12.93;;
7563;SDS011;3823;53.586;10.040;2022-12-15T09:40:46;19.90;;;13.00;;
7563;SDS011;3823;53.586;10.040;2022-12-15T09:43:14;17.90;;;12.17;;
7563;SDS011;3823;53.586;10.040;2022-12-15T09:45:46;22.43;;;13.57;;
7563;SDS011;3823;53.586;10.040;2022-12-15T09:48:17;20.87;;;13.47;;
7563;SDS011;3823;53.586;10.040;2022-12-15T09:50:45;22.00;;;12.27;;
7563;SDS011;3823;53.586;10.040;2022-12-15T09:53:15;34.17;;;13.43;;
7563;SDS011;3823;53.586;10.040;2022-12-15T09:55:42;19.87;;;11.70;;
7563;SDS011;3823;53.586;10.040;2022-12-15T10:04:00;25.20;;;12.57;;
7563;SDS011;3823;53.586;10.040;2022-12-15T10:06:53;23.80;;;11.97;;
7563;SDS011;3823;53.586;10.040;2022-12-15T10:09:41;22.10;;;13.47;;
7563;SDS011;3823;53.586;10.040;2022-12-15T10:12:09;25.83;;;13.40;;
7563;SDS011;3823;53.586;10.040;2022-12-15T10:14:50;22.80;;;11.83;;
7563;SDS011;3823;53.586;10.040;2022-12-15T10:20:26;22.13;;;12.77;;
7563;SDS011;3823;53.586;10.040;2022-12-15T10:23:01;26.97;;;13.80;;
7563;SDS011;3823;53.586;10.040;2022-12-15T10:25:35;23.53;;;13.90;;
7563;SDS011;3823;53.586;10.040;2022-12-15T10:30:40;25.63;;;13.97;;
7563;SDS011;3823;53.586;10.040;2022-12-15T10:33:16;22.33;;;13.50;;
7563;SDS011;3823;53.586;10.040;2022-12-15T10:35:44;20.87;;;14.47;;
7563;SDS011;3823;53.586;10.040;2022-12-15T10:40:55;25.20;;;16.07;;
7563;SDS011;3823;53.586;10.040;2022-12-15T10:43:29;25.17;;;16.70;;
7563;SDS011;3823;53.586;10.040;2022-12-15T10:48:33;28.40;;;15.20;;
7563;SDS011;3823;53.586;10.040;2022-12-15T10:51:07;22.40;;;14.10;;
7563;SDS011;3823;53.586;10.040;2022-12-15T10:56:17;26.03;;;15.83;;
7563;SDS011;3823;53.586;10.040;2022-12-15T10:58:46;26.63;;;14.63;;
7563;SDS011;3823;53.586;10.040;2022-12-15T11:01:17;27.50;;;14.50;;
7563;SDS011;3823;53.586;10.040;2022-12-15T11:03:45;28.60;;;15.87;;
7563;SDS011;3823;53.586;10.040;2022-12-15T11:06:16;27.90;;;16.57;;
7563;SDS011;3823;53.586;10.040;2022-12-15T11:08:45;23.10;;;14.17;;
7563;SDS011;3823;53.586;10.040;2022-12-15T11:11:29;31.07;;;16.83;;
7563;SDS011;3823;53.586;10.040;2022-12-15T11:14:19;26.10;;;13.20;;
7563;SDS011;3823;53.586;10.040;2022-12-15T11:16:56;29.30;;;14.67;;
7563;SDS011;3823;53.586;10.040;2022-12-15T11:19:34;22.07;;;12.90;;
7563;SDS011;3823;53.586;10.040;2022-12-15T11:22:19;21.77;;;13.07;;
7563;SDS011;3823;53.586;10.040;2022-12-15T11:25:13;17.83;;;11.67;;
7563;SDS011;3823;53.586;10.040;2022-12-15T11:27:41;21.93;;;11.67;;
7563;SDS011;3823;53.586;10.040;2022-12-15T11:32:45;19.47;;;11.20;;
7563;SDS011;3823;53.586;10.040;2022-12-15T11:35:14;16.77;;;10.20;;
7563;SDS011;3823;53.586;10.040;2022-12-15T11:37:45;20.53;;;11.80;;
7563;SDS011;3823;53.586;10.040;2022-12-15T11:40:37;17.73;;;11.50;;
7563;SDS011;3823;53.586;10.040;2022-12-15T11:51:49;16.47;;;11.20;;
7563;SDS011;3823;53.586;10.040;2022-12-15T11:56:52;18.80;;;11.20;;
7563;SDS011;3823;53.586;10.040;2022-12-15T12:02:24;15.57;;;10.97;;
7563;SDS011;3823;53.586;10.040;2022-12-15T12:08:08;14.55;;;9.80;;
7563;SDS011;3823;53.586;10.040;2022-12-15T12:13:48;19.85;;;10.93;;
7563;SDS011;3823;53.586;10.040;2022-12-15T12:16:30;17.43;;;9.93;;
7563;SDS011;3823;53.586;10.040;2022-12-15T12:19:17;19.33;;;11.10;;
7563;SDS011;3823;53.586;10.040;2022-12-15T12:21:49;20.53;;;11.23;;
7563;SDS011;3823;53.586;10.040;2022-12-15T12:27:04;15.60;;;10.13;;
7563;SDS011;3823;53.586;10.040;2022-12-15T12:30:37;14.97;;;10.50;;
7563;SDS011;3823;53.586;10.040;2022-12-15T12:32:58;14.40;;;11.00;;
7563;SDS011;3823;53.586;10.040;2022-12-15T12:39:08;17.40;;;11.32;;
7563;SDS011;3823;53.586;10.040;2022-12-15T12:41:35;16.53;;;11.43;;
7563;SDS011;3823;53.586;10.040;2022-12-15T12:44:29;19.17;;;11.80;;
7563;SDS011;3823;53.586;10.040;2022-12-15T12:47:08;20.05;;;10.82;;
7563;SDS011;3823;53.586;10.040;2022-12-15T12:49:47;16.10;;;10.40;;
7563;SDS011;3823;53.586;10.040;2022-12-15T12:52:25;17.50;;;11.60;;
7563;SDS011;3823;53.586;10.040;2022-12-15T12:55:03;17.00;;;10.40;;
7563;SDS011;3823;53.586;10.040;2022-12-15T12:57:47;22.13;;;12.10;;
7563;SDS011;3823;53.586;10.040;2022-12-15T13:00:14;17.35;;;9.93;;
7563;SDS011;3823;53.586;10.040;2022-12-15T13:10:29;23.38;;;11.52;;
7563;SDS011;3823;53.586;10.040;2022-12-15T13:12:56;11.70;;;8.53;;
7563;SDS011;3823;53.586;10.040;2022-12-15T13:20:41;15.73;;;10.48;;
7563;SDS011;3823;53.586;10.040;2022-12-15T13:39:02;13.98;;;9.20;;
7563;SDS011;3823;53.586;10.040;2022-12-15T13:46:48;16.27;;;8.43;;
7563;SDS011;3823;53.586;10.040;2022-12-15T13:49:27;13.23;;;9.07;;
7563;SDS011;3823;53.586;10.040;2022-12-15T13:51:57;16.27;;;9.80;;
7563;SDS011;3823;53.586;10.040;2022-12-15T13:54:33;16.08;;;8.93;;
7563;SDS011;3823;53.586;10.040;2022-12-15T13:57:13;16.63;;;10.07;;
7563;SDS011;3823;53.586;10.040;2022-12-15T13:59:44;14.77;;;9.60;;
7563;SDS011;3823;53.586;10.040;2022-12-15T14:02:22;17.58;;;9.68;;
7563;SDS011;3823;53.586;10.040;2022-12-15T14:07:37;13.93;;;8.82;;
7563;SDS011;3823;53.586;10.040;2022-12-15T14:10:05;18.23;;;10.05;;
7563;SDS011;3823;53.586;10.040;2022-12-15T14:12:43;17.02;;;8.73;;
7563;SDS011;3823;53.586;10.040;2022-12-15T14:15:13;12.18;;;8.77;;
7563;SDS011;3823;53.586;10.040;2022-12-15T14:17:40;13.18;;;9.20;;
7563;SDS011;3823;53.586;10.040;2022-12-15T14:20:12;14.50;;;8.88;;
7563;SDS011;3823;53.586;10.040;2022-12-15T14:22:43;18.75;;;9.48;;
7563;SDS011;3823;53.586;10.040;2022-12-15T14:25:13;16.90;;;10.32;;
7563;SDS011;3823;53.586;10.040;2022-12-15T14:27:44;17.45;;;9.60;;
7563;SDS011;3823;53.586;10.040;2022-12-15T14:30:17;12.07;;;8.90;;
7563;SDS011;3823;53.586;10.040;2022-12-15T14:32:53;16.92;;;10.00;;
7563;SDS011;3823;53.586;10.040;2022-12-15T14:35:38;11.77;;;9.38;;
7563;SDS011;3823;53.586;10.040;2022-12-15T14:38:43;15.55;;;8.98;;
7563;SDS011;3823;53.586;10.040;2022-12-15T14:41:06;11.63;;;7.90;;
7563;SDS011;3823;53.586;10.040;2022-12-15T14:43:41;14.90;;;9.77;;
7563;SDS011;3823;53.586;10.040;2022-12-15T14:46:11;16.13;;;9.18;;
7563;SDS011;3823;53.586;10.040;2022-12-15T14:48:59;16.58;;;10.15;;
7563;SDS011;3823;53.586;10.040;2022-12-15T14:51:28;16.95;;;8.02;;
7563;SDS011;3823;53.586;10.040;2022-12-15T14:53:54;12.93;;;8.75;;
7563;SDS011;3823;53.586;10.040;2022-12-15T14:58:46;11.60;;;8.52;;
7563;SDS011;3823;53.586;10.040;2022-12-15T15:01:36;16.25;;;9.07;;
7563;SDS011;3823;53.586;10.040;2022-12-15T15:04:24;11.38;;;8.90;;
7563;SDS011;3823;53.586;10.040;2022-12-15T15:06:54;13.63;;;8.88;;
7563;SDS011;3823;53.586;10.040;2022-12-15T15:09:29;21.80;;;9.63;;
7563;SDS011;3823;53.586;10.040;2022-12-15T15:11:59;15.20;;;9.23;;
7563;SDS011;3823;53.586;10.040;2022-12-15T15:14:27;13.55;;;8.93;;
7563;SDS011;3823;53.586;10.040;2022-12-15T15:17:06;11.70;;;9.52;;
7563;SDS011;3823;53.586;10.040;2022-12-15T15:19:57;12.45;;;9.65;;
7563;SDS011;3823;53.586;10.040;2022-12-15T15:25:00;14.85;;;9.75;;
7563;SDS011;3823;53.586;10.040;2022-12-15T15:27:35;12.82;;;9.30;;
7563;SDS011;3823;53.586;10.040;2022-12-15T15:30:16;14.90;;;9.50;;
7563;SDS011;3823;53.586;10.040;2022-12-15T15:32:51;14.85;;;9.60;;
7563;SDS011;3823;53.586;10.040;2022-12-15T15:35:19;17.00;;;7.93;;
7563;SDS011;3823;53.586;10.040;2022-12-15T15:37:45;20.85;;;9.77;;
7563;SDS011;3823;53.586;10.040;2022-12-15T15:40:11;13.18;;;10.32;;
7563;SDS011;3823;53.586;10.040;2022-12-15T15:42:40;13.55;;;9.15;;
7563;SDS011;3823;53.586;10.040;2022-12-15T15:45:09;13.02;;;8.93;;
7563;SDS011;3823;53.586;10.040;2022-12-15T15:47:37;13.95;;;8.88;;
7563;SDS011;3823;53.586;10.040;2022-12-15T15:50:04;12.90;;;9.35;;
7563;SDS011;3823;53.586;10.040;2022-12-15T15:52:30;11.80;;;9.65;;
7563;SDS011;3823;53.586;10.040;2022-12-15T15:54:56;10.75;;;8.75;;
7563;SDS011;3823;53.586;10.040;2022-12-15T15:57:23;14.23;;;9.73;;
7563;SDS011;3823;53.586;10.040;2022-12-15T15:59:48;23.30;;;10.95;;
7563;SDS011;3823;53.586;10.040;2022-12-15T16:02:15;17.33;;;10.20;;
7563;SDS011;3823;53.586;10.040;2022-12-15T16:04:41;15.70;;;9.35;;
7563;SDS011;3823;53.586;10.040;2022-12-15T16:07:23;15.40;;;10.13;;
7563;SDS011;3823;53.586;10.040;2022-12-15T16:09:52;13.50;;;10.40;;
7563;SDS011;3823;53.586;10.040;2022-12-15T16:12:28;11.60;;;9.23;;
7563;SDS011;3823;53.586;10.040;2022-12-15T16:15:12;15.32;;;9.63;;
7563;SDS011;3823;53.586;10.040;2022-12-15T16:17:42;18.25;;;10.50;;
7563;SDS011;3823;53.586;10.040;2022-12-15T16:20:09;16.90;;;9.80;;
7563;SDS011;3823;53.586;10.040;2022-12-15T16:22:36;19.58;;;11.68;;
7563;SDS011;3823;53.586;10.040;2022-12-15T16:25:03;17.80;;;10.23;;
7563;SDS011;3823;53.586;10.040;2022-12-15T16:27:30;16.27;;;10.40;;
7563;SDS011;3823;53.586;10.040;2022-12-15T16:29:55;16.20;;;9.70;;
7563;SDS011;3823;53.586;10.040;2022-12-15T16:32:22;23.13;;;9.93;;
7563;SDS011;3823;53.586;10.040;2022-12-15T16:34:47;14.55;;;10.50;;
7563;SDS011;3823;53.586;10.040;2022-12-15T16:37:23;14.88;;;9.98;;
7563;SDS011;3823;53.586;10.040;2022-12-15T16:39:51;26.52;;;13.38;;
7563;SDS011;3823;53.586;10.040;2022-12-15T16:42:17;13.30;;;10.57;;
7563;SDS011;3823;53.586;10.040;2022-12-15T16:44:42;17.15;;;10.40;;
7563;SDS011;3823;53.586;10.040;2022-12-15T16:47:08;33.88;;;12.38;;
7563;SDS011;3823;53.586;10.040;2022-12-15T16:49:34;17.02;;;11.85;;
7563;SDS011;3823;53.586;10.040;2022-12-15T16:51:59;18.92;;;11.65;;
7563;SDS011;3823;53.586;10.040;2022-12-15T16:54:25;22.13;;;12.55;;
7563;SDS011;3823;53.586;10.040;2022-12-15T16:56:55;18.67;;;11.30;;
7563;SDS011;3823;53.586;10.040;2022-12-15T16:59:22;19.75;;;12.00;;